Time;durP1;ratioP1;P1;durP2;ratioP2;P2;SDS_P1;SDS_P2;PMS_P1;PMS_P2;Temp;Humidity;BMP_temperature;BMP_pressure;BME280_temperature;BME280_humidity;BME280_pressure;Samples;Min_cycle;Max_cycle;Signal;HPM_P1;HPM_P2
2023/12/11 00:00:11;;;;;;;7.30;2.58;;;12.00;86.40;;;;;;5015923;28;20044;-62
2023/12/11 00:02:38;;;;;;;13.00;2.85;;;12.00;86.40;;;;;;5020339;28;20547;-61
2023/12/11 00:05:04;;;;;;;13.55;2.75;;;11.90;86.30;;;;;;5031273;28;20044;-61
2023/12/11 00:07:30;;;;;;;10.10;3.17;;;11.90;86.40;;;;;;5024841;28;20479;-61
2023/12/11 00:09:56;;;;;;;11.35;3.67;;;11.90;86.30;;;;;;5023178;28;20037;-69
2023/12/11 00:12:21;;;;;;;10.15;3.17;;;11.80;86.30;;;;;;5016942;28;20065;-69
2023/12/11 00:14:48;;;;;;;11.35;2.90;;;11.80;86.20;;;;;;5011029;28;20120;-69
2023/12/11 00:17:14;;;;;;;16.83;3.97;;;11.80;86.20;;;;;;5029356;28;20034;-69
2023/12/11 00:19:39;;;;;;;12.88;3.03;;;11.80;86.30;;;;;;5030340;28;20079;-69
2023/12/11 00:22:05;;;;;;;10.23;2.88;;;11.70;86.30;;;;;;5023660;28;20036;-69
2023/12/11 00:24:31;;;;;;;21.50;3.88;;;11.70;86.30;;;;;;5026276;28;20037;-69
2023/12/11 00:26:56;;;;;;;13.73;3.17;;;11.70;86.40;;;;;;5025146;28;20300;-69
2023/12/11 00:29:22;;;;;;;18.08;4.43;;;11.80;86.30;;;;;;5030370;28;20034;-70
2023/12/11 00:31:48;;;;;;;14.30;3.33;;;11.80;86.20;;;;;;5024646;28;20064;-69
2023/12/11 00:34:14;;;;;;;10.65;2.95;;;11.80;86.10;;;;;;5028370;28;20541;-62
2023/12/11 00:36:42;;;;;;;20.02;3.70;;;11.80;86.20;;;;;;5029369;28;20025;-61
2023/12/11 00:39:08;;;;;;;15.23;3.58;;;11.80;86.30;;;;;;5030217;28;20389;-62
2023/12/11 00:41:34;;;;;;;24.20;3.95;;;11.80;86.40;;;;;;5027921;28;20053;-62
2023/12/11 00:43:59;;;;;;;9.43;3.33;;;11.80;86.30;;;;;;5020922;28;20030;-62
2023/12/11 00:46:25;;;;;;;12.43;2.95;;;11.80;86.30;;;;;;5013031;28;20518;-61
2023/12/11 00:48:51;;;;;;;19.08;4.32;;;11.80;86.20;;;;;;5020287;28;20014;-61
2023/12/11 00:51:18;;;;;;;12.73;5.03;;;11.80;86.10;;;;;;5031284;28;20420;-61
2023/12/11 00:53:45;;;;;;;10.25;2.35;;;11.80;86.10;;;;;;5030909;28;20052;-61
2023/12/11 00:56:11;;;;;;;9.52;3.42;;;11.80;86.10;;;;;;5035424;28;20102;-61
2023/12/11 00:58:36;;;;;;;10.38;3.40;;;11.70;86.20;;;;;;5032789;28;20053;-61
2023/12/11 01:01:02;;;;;;;9.05;2.55;;;11.70;86.10;;;;;;5016715;28;20063;-61
2023/12/11 01:03:28;;;;;;;24.60;5.63;;;11.70;86.20;;;;;;5032103;28;20029;-61
2023/12/11 01:05:54;;;;;;;8.60;3.05;;;11.70;86.20;;;;;;5029364;28;20586;-61
2023/12/11 01:08:19;;;;;;;18.73;4.60;;;11.70;86.20;;;;;;5029649;28;20069;-62
2023/12/11 01:10:45;;;;;;;10.13;2.88;;;11.70;86.30;;;;;;5033018;28;20030;-62
2023/12/11 01:13:11;;;;;;;14.27;3.03;;;11.60;86.20;;;;;;5028927;28;20485;-62
2023/12/11 01:15:37;;;;;;;7.78;2.25;;;11.70;86.50;;;;;;5032630;28;20030;-61
2023/12/11 01:18:03;;;;;;;12.02;3.53;;;11.60;86.20;;;;;;5029242;28;20044;-61
2023/12/11 01:20:28;;;;;;;10.65;3.20;;;11.70;86.20;;;;;;5030858;28;20040;-61
2023/12/11 01:22:54;;;;;;;16.73;3.33;;;11.70;86.20;;;;;;5029305;28;20040;-62
2023/12/11 01:25:20;;;;;;;17.50;4.38;;;11.70;86.00;;;;;;5018724;28;20506;-62
2023/12/11 01:27:46;;;;;;;12.20;2.88;;;11.80;86.00;;;;;;5032313;28;20024;-61
2023/12/11 01:30:11;;;;;;;20.40;3.55;;;11.80;85.80;;;;;;5022631;28;20030;-61
2023/12/11 01:32:38;;;;;;;6.47;2.45;;;11.80;85.60;;;;;;5028466;28;20116;-62
2023/12/11 01:35:04;;;;;;;9.05;2.92;;;11.80;85.60;;;;;;5029092;28;20040;-61
2023/12/11 01:37:29;;;;;;;12.15;3.25;;;11.90;85.50;;;;;;5031911;28;20217;-69
2023/12/11 01:39:55;;;;;;;9.60;3.17;;;11.90;85.30;;;;;;5004355;28;20025;-69
2023/12/11 01:42:21;;;;;;;10.43;3.42;;;11.90;85.10;;;;;;5032818;28;20046;-62
2023/12/11 01:44:46;;;;;;;10.10;3.72;;;11.90;85.20;;;;;;5026831;28;20079;-61
2023/12/11 01:47:13;;;;;;;6.70;3.22;;;11.90;85.00;;;;;;5028381;28;20068;-62
2023/12/11 01:49:38;;;;;;;6.65;3.05;;;11.90;85.00;;;;;;5020695;28;20549;-61
2023/12/11 01:52:05;;;;;;;9.23;2.65;;;11.90;85.00;;;;;;5029024;28;20045;-62
2023/12/11 01:54:32;;;;;;;22.17;3.40;;;11.80;84.90;;;;;;5031268;28;20037;-62
2023/12/11 01:56:57;;;;;;;18.10;2.60;;;11.90;84.80;;;;;;5016122;28;20558;-61
2023/12/11 01:59:23;;;;;;;10.65;2.38;;;11.80;84.80;;;;;;5026108;28;20116;-61
2023/12/11 02:01:50;;;;;;;10.20;2.95;;;11.90;84.90;;;;;;5033646;28;20034;-61
2023/12/11 02:04:15;;;;;;;20.30;3.95;;;11.90;84.80;;;;;;5024302;28;20493;-61
2023/12/11 02:06:41;;;;;;;14.55;3.58;;;11.90;84.70;;;;;;5033973;28;20104;-61
2023/12/11 02:09:08;;;;;;;12.32;3.72;;;11.80;84.70;;;;;;5029750;28;20033;-61
2023/12/11 02:11:34;;;;;;;13.02;3.42;;;11.80;84.80;;;;;;5034937;28;20057;-61
2023/12/11 02:14:00;;;;;;;6.35;2.75;;;11.90;84.90;;;;;;5031920;28;20056;-69
2023/12/11 02:16:25;;;;;;;14.85;5.13;;;11.90;84.90;;;;;;5032146;28;20527;-69
2023/12/11 02:18:51;;;;;;;8.43;2.20;;;11.90;84.90;;;;;;5018804;28;20048;-70
2023/12/11 02:21:17;;;;;;;14.27;3.85;;;11.90;85.00;;;;;;5036522;28;20029;-69
2023/12/11 02:24:18;;;;;;;7.72;3.17;;;11.80;85.20;;;;;;5036274;28;20049;-70
2023/12/11 02:26:44;;;;;;;20.67;3.63;;;11.90;85.30;;;;;;5038433;28;20384;-69
2023/12/11 02:29:10;;;;;;;13.18;2.70;;;11.80;85.40;;;;;;5034124;28;20022;-68
2023/12/11 02:31:36;;;;;;;9.68;2.40;;;11.80;85.70;;;;;;5040238;28;20033;-69
2023/12/11 02:34:01;;;;;;;5.57;2.58;;;11.80;85.90;;;;;;5037158;28;20412;-68
2023/12/11 02:36:27;;;;;;;14.77;2.65;;;11.80;85.90;;;;;;5037655;28;20119;-69
2023/12/11 02:38:53;;;;;;;3.20;1.98;;;11.80;85.90;;;;;;5035619;28;20099;-68
2023/12/11 02:41:18;;;;;;;15.65;3.67;;;11.80;85.90;;;;;;5018584;28;20041;-68
2023/12/11 02:43:44;;;;;;;12.20;3.10;;;11.80;86.00;;;;;;5017999;28;20044;-69
2023/12/11 02:46:10;;;;;;;12.25;3.53;;;11.80;86.10;;;;;;5036923;28;20040;-68
2023/12/11 02:48:36;;;;;;;15.50;3.67;;;11.80;86.10;;;;;;5034226;28;20034;-68
2023/12/11 02:51:02;;;;;;;6.95;2.25;;;11.80;86.30;;;;;;5035756;28;20350;-68
2023/12/11 02:53:27;;;;;;;10.00;3.70;;;11.80;86.40;;;;;;5014717;28;20055;-68
2023/12/11 02:55:53;;;;;;;13.60;3.25;;;11.80;86.30;;;;;;5019764;28;20360;-68
2023/12/11 02:58:19;;;;;;;8.23;2.08;;;11.80;86.30;;;;;;5038623;28;20025;-68
2023/12/11 03:00:45;;;;;;;7.95;2.42;;;11.80;86.30;;;;;;5042236;28;20028;-68
2023/12/11 03:03:10;;;;;;;11.77;3.17;;;11.80;86.40;;;;;;5034421;28;20030;-68
2023/12/11 03:05:36;;;;;;;8.15;2.85;;;11.80;86.60;;;;;;5006551;28;20518;-68
2023/12/11 03:08:04;;;;;;;14.85;4.00;;;11.80;86.80;;;;;;5028489;28;20064;-69
2023/12/11 03:10:30;;;;;;;11.90;3.22;;;11.80;87.00;;;;;;5033185;28;20060;-69
2023/12/11 03:12:56;;;;;;;24.02;2.88;;;11.70;87.40;;;;;;5001230;28;20053;-68
2023/12/11 03:15:22;;;;;;;11.07;3.47;;;11.70;87.60;;;;;;5032889;28;20100;-68
2023/12/11 03:17:48;;;;;;;8.60;2.60;;;11.70;87.90;;;;;;5035359;28;20389;-69
2023/12/11 03:20:14;;;;;;;4.85;2.15;;;11.70;87.90;;;;;;5035264;28;20026;-67
2023/12/11 03:22:40;;;;;;;19.67;2.30;;;11.70;88.00;;;;;;5034532;28;20026;-68
2023/12/11 03:25:06;;;;;;;10.13;2.85;;;11.60;88.40;;;;;;5038494;28;20041;-67
2023/12/11 03:27:31;;;;;;;6.45;2.15;;;11.60;89.00;;;;;;5035733;28;20026;-61
2023/12/11 03:29:57;;;;;;;7.03;2.92;;;11.60;89.10;;;;;;5038095;28;20038;-61
2023/12/11 03:32:23;;;;;;;9.80;1.92;;;11.50;89.00;;;;;;5019816;28;20126;-61
2023/12/11 03:34:49;;;;;;;4.63;2.60;;;11.50;88.70;;;;;;5041700;28;20170;-67
2023/12/11 03:37:14;;;;;;;14.13;2.33;;;11.50;88.40;;;;;;5030320;28;20029;-68
2023/12/11 03:39:41;;;;;;;15.73;2.00;;;11.50;88.40;;;;;;5043423;28;20528;-68
2023/12/11 03:42:07;;;;;;;17.10;2.55;;;11.50;88.20;;;;;;5033480;28;20042;-68
2023/12/11 03:44:32;;;;;;;3.85;2.15;;;11.50;88.20;;;;;;5028491;28;20048;-68
2023/12/11 03:46:58;;;;;;;9.43;1.55;;;11.50;88.10;;;;;;5032112;28;20025;-61
2023/12/11 03:49:24;;;;;;;9.23;2.58;;;11.50;88.10;;;;;;5014439;28;20076;-61
2023/12/11 03:51:50;;;;;;;11.27;1.95;;;11.60;88.00;;;;;;5031517;28;20037;-61
2023/12/11 03:54:16;;;;;;;9.20;2.97;;;11.50;87.80;;;;;;5030670;28;20032;-62
2023/12/11 03:56:42;;;;;;;6.30;2.13;;;11.50;87.80;;;;;;5031575;28;20017;-61
2023/12/11 03:59:08;;;;;;;7.65;2.70;;;11.60;87.80;;;;;;5041471;28;20017;-68
2023/12/11 04:01:34;;;;;;;6.43;2.10;;;11.60;87.70;;;;;;5020120;28;20048;-68
2023/12/11 04:04:00;;;;;;;8.05;2.17;;;11.60;87.50;;;;;;5038820;28;20044;-68
2023/12/11 04:06:26;;;;;;;7.35;2.75;;;11.60;87.40;;;;;;5031237;28;20029;-64
2023/12/11 04:08:52;;;;;;;7.72;2.50;;;11.60;87.30;;;;;;5040170;28;20391;-61
2023/12/11 04:11:17;;;;;;;8.52;1.80;;;11.60;87.20;;;;;;5031170;28;20120;-62
2023/12/11 04:13:44;;;;;;;5.15;1.65;;;11.50;87.00;;;;;;5021672;28;20127;-61
2023/12/11 04:16:10;;;;;;;3.72;1.60;;;11.60;87.10;;;;;;5034650;28;20396;-68
2023/12/11 04:18:39;;;;;;;4.10;1.65;;;11.60;87.10;;;;;;5034023;28;20018;-61
2023/12/11 04:21:06;;;;;;;5.78;1.75;;;11.60;87.20;;;;;;5032220;28;20021;-61
2023/12/11 04:23:32;;;;;;;3.78;1.08;;;11.60;87.20;;;;;;5034691;28;20025;-61
2023/12/11 04:25:59;;;;;;;6.50;1.33;;;11.60;87.20;;;;;;5030605;28;20037;-61
2023/12/11 04:28:26;;;;;;;8.25;2.50;;;11.60;87.30;;;;;;5033184;28;20087;-61
2023/12/11 04:30:52;;;;;;;5.50;2.45;;;11.60;87.40;;;;;;5032018;28;20526;-61
2023/12/11 04:33:18;;;;;;;7.70;2.08;;;11.60;88.20;;;;;;5027045;28;20057;-61
2023/12/11 04:35:44;;;;;;;4.53;1.60;;;11.60;87.80;;;;;;5028951;28;20040;-68
2023/12/11 04:38:10;;;;;;;5.38;2.35;;;11.60;87.90;;;;;;5014934;28;20021;-68
2023/12/11 04:40:36;;;;;;;7.82;2.58;;;11.60;88.10;;;;;;5030353;28;20040;-68
2023/12/11 04:43:02;;;;;;;9.70;2.22;;;11.60;88.20;;;;;;5031877;28;20029;-61
2023/12/11 04:45:28;;;;;;;6.88;3.05;;;11.60;88.30;;;;;;5028109;28;20040;-61
2023/12/11 04:47:54;;;;;;;11.20;3.30;;;11.60;88.20;;;;;;5016999;28;20768;-60
2023/12/11 04:50:19;;;;;;;9.82;1.88;;;11.60;88.20;;;;;;5036318;28;20543;-60
2023/12/11 04:52:45;;;;;;;9.38;2.67;;;11.60;88.10;;;;;;5033209;28;20089;-60
2023/12/11 04:55:11;;;;;;;8.85;2.42;;;11.60;88.00;;;;;;5029932;28;20484;-60
2023/12/11 04:57:37;;;;;;;5.47;2.22;;;11.70;88.00;;;;;;5036396;28;20029;-60
2023/12/11 05:00:04;;;;;;;12.60;3.33;;;11.70;87.90;;;;;;5029461;28;20071;-60
2023/12/11 05:02:30;;;;;;;8.07;2.75;;;11.70;87.80;;;;;;5029613;28;20073;-60
2023/12/11 05:04:56;;;;;;;7.65;2.08;;;11.70;87.80;;;;;;5019692;28;20021;-60
2023/12/11 05:07:22;;;;;;;8.13;1.88;;;11.70;87.70;;;;;;5032357;28;20040;-60
2023/12/11 05:09:48;;;;;;;11.30;2.95;;;11.70;87.60;;;;;;5029056;28;20029;-60
2023/12/11 05:12:14;;;;;;;9.48;3.05;;;11.70;87.70;;;;;;5014509;28;20041;-60
2023/12/11 05:14:40;;;;;;;10.57;2.70;;;11.70;87.70;;;;;;5034752;28;20025;-61
2023/12/11 05:17:05;;;;;;;11.13;2.78;;;11.70;87.80;;;;;;5035587;28;20025;-61
2023/12/11 05:19:31;;;;;;;4.18;2.55;;;11.70;87.60;;;;;;5027969;28;20388;-60
2023/12/11 05:21:58;;;;;;;14.50;4.03;;;11.70;87.60;;;;;;5029128;28;20034;-60
2023/12/11 05:24:25;;;;;;;7.00;2.20;;;11.70;87.50;;;;;;5039175;28;20491;-60
2023/12/11 05:26:51;;;;;;;6.93;2.42;;;11.70;87.40;;;;;;5036951;28;20059;-60
2023/12/11 05:29:16;;;;;;;14.18;2.35;;;11.80;87.40;;;;;;5030514;28;20029;-60
2023/12/11 05:31:43;;;;;;;10.27;2.83;;;11.80;87.30;;;;;;5028000;28;20374;-60
2023/12/11 05:34:08;;;;;;;11.88;2.28;;;11.70;87.30;;;;;;5012814;28;20502;-60
2023/12/11 05:36:34;;;;;;;8.45;2.25;;;11.70;87.30;;;;;;5015673;28;20031;-60
2023/12/11 05:39:00;;;;;;;8.05;1.60;;;11.70;87.40;;;;;;5027463;28;20381;-60
2023/12/11 05:41:26;;;;;;;10.93;3.42;;;11.80;87.40;;;;;;5027183;28;20045;-67
2023/12/11 05:43:51;;;;;;;11.60;4.05;;;11.70;87.50;;;;;;5014847;28;20039;-67
2023/12/11 05:46:17;;;;;;;8.50;2.60;;;11.70;87.70;;;;;;5033064;28;21410;-67
2023/12/11 05:48:43;;;;;;;10.57;3.80;;;11.70;87.80;;;;;;5026825;28;20044;-67
2023/12/11 05:51:09;;;;;;;5.65;1.90;;;11.70;87.90;;;;;;5031400;28;20543;-67
2023/12/11 05:53:34;;;;;;;8.05;2.65;;;11.70;87.90;;;;;;5021670;28;20036;-60
2023/12/11 05:56:00;;;;;;;6.65;2.40;;;11.70;87.80;;;;;;5028679;28;20105;-60
2023/12/11 05:58:26;;;;;;;9.30;3.25;;;11.70;87.80;;;;;;5029579;28;20468;-60
2023/12/11 06:00:52;;;;;;;14.02;4.13;;;11.70;87.90;;;;;;5034733;28;20097;-60
2023/12/11 06:03:17;;;;;;;14.38;3.33;;;11.60;87.70;;;;;;5031535;28;20021;-68
2023/12/11 06:05:43;;;;;;;10.98;3.35;;;11.60;87.70;;;;;;5033498;28;20029;-67
2023/12/11 06:08:08;;;;;;;13.38;3.03;;;11.60;87.60;;;;;;5025148;28;20048;-67
2023/12/11 06:10:37;;;;;;;6.57;2.15;;;11.70;87.50;;;;;;5036995;28;20484;-67
2023/12/11 06:13:03;;;;;;;12.82;3.35;;;11.70;87.20;;;;;;5019442;28;20033;-60
2023/12/11 06:15:29;;;;;;;8.40;2.80;;;11.70;87.10;;;;;;5034705;28;20079;-60
2023/12/11 06:17:54;;;;;;;5.45;2.13;;;11.70;87.00;;;;;;5028918;28;20041;-59
2023/12/11 06:20:20;;;;;;;18.73;2.95;;;11.70;87.10;;;;;;5013252;28;20112;-60
2023/12/11 06:22:49;;;;;;;14.20;2.92;;;11.70;87.00;;;;;;5027184;28;20056;-59
2023/12/11 06:25:14;;;;;;;12.65;2.40;;;11.70;87.40;;;;;;5018008;28;20123;-60
2023/12/11 06:27:40;;;;;;;7.35;2.25;;;11.70;87.40;;;;;;5032530;28;20025;-60
2023/12/11 06:30:07;;;;;;;12.52;3.58;;;11.60;87.50;;;;;;5023437;28;20040;-62
2023/12/11 06:32:34;;;;;;;7.82;2.67;;;11.60;87.60;;;;;;5032035;28;20022;-60
2023/12/11 06:34:59;;;;;;;6.18;2.75;;;11.60;87.70;;;;;;5035435;28;20026;-59
2023/12/11 06:37:25;;;;;;;6.60;2.55;;;11.50;87.80;;;;;;5028686;28;20362;-59
2023/12/11 06:39:50;;;;;;;10.77;3.72;;;11.50;88.00;;;;;;5031936;28;20041;-60
2023/12/11 06:42:16;;;;;;;10.50;3.03;;;11.50;88.10;;;;;;5026927;28;20049;-59
2023/12/11 06:44:42;;;;;;;3.92;1.85;;;11.50;88.10;;;;;;5033303;28;20027;-60
2023/12/11 06:47:08;;;;;;;8.68;2.17;;;11.50;88.30;;;;;;5030491;28;20079;-59
2023/12/11 06:49:34;;;;;;;17.95;3.03;;;11.40;88.60;;;;;;5031237;28;20432;-67
2023/12/11 06:52:00;;;;;;;11.48;2.03;;;11.40;88.80;;;;;;5032778;28;20041;-67
2023/12/11 06:54:25;;;;;;;11.57;2.30;;;11.40;88.90;;;;;;5039285;28;20044;-67
2023/12/11 06:56:51;;;;;;;5.88;1.88;;;11.30;89.00;;;;;;5025959;28;20491;-67
2023/12/11 06:59:17;;;;;;;7.57;1.95;;;11.40;89.10;;;;;;5035434;28;20032;-67
2023/12/11 07:01:42;;;;;;;10.52;2.50;;;11.40;89.20;;;;;;5030334;28;20032;-67
2023/12/11 07:04:08;;;;;;;3.70;1.60;;;11.40;89.20;;;;;;5034851;28;20040;-68
2023/12/11 07:06:34;;;;;;;8.98;1.95;;;11.40;89.10;;;;;;5034574;28;20112;-60
2023/12/11 07:08:59;;;;;;;13.57;1.98;;;11.40;89.00;;;;;;5033783;28;20357;-60
2023/12/11 07:11:25;;;;;;;5.15;1.42;;;11.40;88.90;;;;;;5030601;28;20030;-59
2023/12/11 07:13:52;;;;;;;8.52;2.55;;;11.40;88.90;;;;;;5014579;28;20028;-60
2023/12/11 07:16:18;;;;;;;4.47;1.30;;;11.40;88.80;;;;;;5036981;28;20040;-59
2023/12/11 07:18:44;;;;;;;7.55;2.67;;;11.40;88.70;;;;;;5037053;28;20021;-60
2023/12/11 07:21:10;;;;;;;4.55;2.33;;;11.40;88.80;;;;;;5037818;28;20037;-60
2023/12/11 07:23:36;;;;;;;8.13;2.70;;;11.30;88.70;;;;;;5014647;28;20040;-60
2023/12/11 07:26:04;;;;;;;6.13;1.90;;;11.30;88.80;;;;;;5020435;28;20033;-59
2023/12/11 07:28:30;;;;;;;8.90;3.05;;;11.30;88.90;;;;;;5032711;28;20030;-60
2023/12/11 07:30:58;;;;;;;4.47;1.27;;;11.30;89.00;;;;;;5039613;28;20115;-60
2023/12/11 07:33:24;;;;;;;12.48;2.75;;;11.30;89.00;;;;;;5023043;28;20052;-60
2023/12/11 07:35:50;;;;;;;7.38;1.60;;;11.30;88.80;;;;;;5027251;28;20025;-59
2023/12/11 07:38:15;;;;;;;4.88;1.60;;;11.30;88.70;;;;;;5019263;28;20447;-60
2023/12/11 07:40:42;;;;;;;5.53;2.25;;;11.30;88.60;;;;;;5033549;28;20026;-60
2023/12/11 07:43:08;;;;;;;3.78;1.90;;;11.30;88.50;;;;;;5040550;28;20100;-59
2023/12/11 07:45:34;;;;;;;7.13;1.20;;;11.30;88.70;;;;;;5035601;28;20064;-67
2023/12/11 07:48:00;;;;;;;3.70;1.52;;;11.30;88.90;;;;;;5039999;28;20028;-67
2023/12/11 07:50:26;;;;;;;7.65;2.20;;;11.30;89.00;;;;;;5033986;28;20121;-60
2023/12/11 07:52:52;;;;;;;10.77;1.73;;;11.30;89.10;;;;;;5040966;28;20454;-68
2023/12/11 07:55:18;;;;;;;6.35;1.67;;;11.20;89.20;;;;;;5029365;28;20030;-59
2023/12/11 07:57:43;;;;;;;4.15;1.95;;;11.20;89.40;;;;;;5039303;28;20439;-62
2023/12/11 08:00:10;;;;;;;4.47;1.45;;;11.20;89.40;;;;;;5041645;28;20034;-60
2023/12/11 08:02:35;;;;;;;7.80;1.55;;;11.20;89.40;;;;;;5033515;28;20036;-59
2023/12/11 08:05:02;;;;;;;6.60;1.55;;;11.20;89.10;;;;;;5037693;28;20392;-60
2023/12/11 08:07:28;;;;;;;3.90;1.45;;;11.20;88.70;;;;;;5023747;28;20033;-60
2023/12/11 08:09:53;;;;;;;14.82;1.77;;;11.20;88.70;;;;;;5013726;28;20033;-59
2023/12/11 08:12:19;;;;;;;2.05;0.95;;;11.20;88.60;;;;;;5030662;28;20366;-67
2023/12/11 08:14:45;;;;;;;3.28;1.88;;;11.20;88.70;;;;;;5026895;28;20450;-60
2023/12/11 08:17:11;;;;;;;9.85;2.35;;;11.20;88.70;;;;;;5030313;28;20029;-60
2023/12/11 08:19:38;;;;;;;9.77;1.83;;;11.20;88.90;;;;;;5027091;28;20451;-60
2023/12/11 08:22:04;;;;;;;6.10;1.63;;;11.20;89.00;;;;;;5023198;28;20073;-67
2023/12/11 08:24:30;;;;;;;7.28;1.67;;;11.10;89.00;;;;;;5024212;28;20118;-68
2023/12/11 08:26:56;;;;;;;2.65;1.27;;;11.10;89.00;;;;;;5027644;28;20506;-67
2023/12/11 08:29:22;;;;;;;6.05;1.63;;;11.10;89.20;;;;;;5037276;28;20400;-69
2023/12/11 08:31:48;;;;;;;4.90;1.15;;;11.20;89.10;;;;;;5036761;28;20476;-69
2023/12/11 08:34:14;;;;;;;8.13;1.63;;;11.20;88.90;;;;;;5032569;28;20026;-69
2023/12/11 08:36:40;;;;;;;3.60;1.27;;;11.20;88.50;;;;;;5033556;28;20124;-68
2023/12/11 08:39:06;;;;;;;3.25;0.98;;;11.10;88.30;;;;;;5013638;28;20136;-68
2023/12/11 08:41:33;;;;;;;6.35;2.22;;;11.20;88.30;;;;;;5037733;28;20118;-68
2023/12/11 08:43:59;;;;;;;2.35;1.35;;;11.20;88.30;;;;;;5030931;28;20113;-68
2023/12/11 08:46:25;;;;;;;3.00;0.80;;;11.20;88.20;;;;;;5037824;28;20030;-60
2023/12/11 08:48:50;;;;;;;3.88;1.15;;;11.20;88.30;;;;;;5030480;28;20078;-60
2023/12/11 08:51:19;;;;;;;5.47;2.35;;;11.20;88.40;;;;;;5029567;28;20369;-71
2023/12/11 08:53:48;;;;;;;3.75;1.10;;;11.20;88.50;;;;;;4997387;28;20072;-63
2023/12/11 08:56:14;;;;;;;1.45;0.95;;;11.20;88.50;;;;;;5011945;28;20138;-71
2023/12/11 08:58:40;;;;;;;1.50;0.95;;;11.20;88.50;;;;;;5030690;28;20428;-67
2023/12/11 09:01:06;;;;;;;5.38;1.08;;;11.20;88.40;;;;;;4998118;28;20480;-66
2023/12/11 09:03:31;;;;;;;2.08;1.27;;;11.20;87.90;;;;;;5032072;28;20059;-64
2023/12/11 09:05:57;;;;;;;3.58;1.30;;;11.20;87.90;;;;;;5031515;28;20033;-66
2023/12/11 09:08:23;;;;;;;3.22;1.15;;;11.20;87.70;;;;;;5031698;28;20021;-67
2023/12/11 09:10:49;;;;;;;8.00;1.67;;;11.30;87.60;;;;;;5028001;28;20037;-64
2023/12/11 09:13:15;;;;;;;3.67;0.80;;;11.30;87.50;;;;;;5032643;28;20480;-64
2023/12/11 09:15:40;;;;;;;5.35;1.85;;;11.40;87.20;;;;;;5030847;28;20014;-72
2023/12/11 09:18:08;;;;;;;5.40;1.05;;;11.40;86.80;;;;;;5028659;28;20544;-72
2023/12/11 09:20:34;;;;;;;4.97;1.02;;;11.40;86.40;;;;;;5030072;28;20029;-72
2023/12/11 09:23:00;;;;;;;2.03;1.45;;;11.40;86.10;;;;;;5005216;28;20120;-72
2023/12/11 09:25:26;;;;;;;4.57;1.45;;;11.50;85.60;;;;;;5016275;28;20021;-72
2023/12/11 09:27:51;;;;;;;3.33;0.98;;;11.50;85.60;;;;;;5027083;28;20018;-72
2023/12/11 09:30:18;;;;;;;1.25;0.88;;;11.40;84.80;;;;;;4994828;28;20519;-72
2023/12/11 09:32:45;;;;;;;4.90;0.82;;;11.50;84.70;;;;;;5023131;28;20041;-64
2023/12/11 09:35:11;;;;;;;4.15;1.05;;;11.50;84.50;;;;;;5027223;28;20036;-64
2023/12/11 09:37:36;;;;;;;4.63;0.90;;;11.50;84.50;;;;;;5015361;28;20057;-64
2023/12/11 09:40:03;;;;;;;2.67;1.38;;;11.50;83.90;;;;;;5031934;28;20025;-64
2023/12/11 09:42:29;;;;;;;2.67;1.15;;;11.50;84.00;;;;;;5015961;28;20049;-64
2023/12/11 09:44:55;;;;;;;2.47;0.70;;;11.50;84.00;;;;;;5025307;28;20029;-64
2023/12/11 09:47:28;;;;;;;1.42;0.80;;;11.50;83.90;;;;;;5018796;28;20045;-66
2023/12/11 09:49:54;;;;;;;4.72;0.80;;;11.50;83.70;;;;;;5031693;28;20030;-65
2023/12/11 09:52:22;;;;;;;1.50;0.80;;;11.50;83.80;;;;;;5033468;28;20091;-65
2023/12/11 09:54:47;;;;;;;3.33;0.93;;;11.50;83.80;;;;;;5033130;28;20044;-66
2023/12/11 09:57:15;;;;;;;4.03;1.75;;;11.50;83.70;;;;;;5031167;28;20030;-72
2023/12/11 09:59:42;;;;;;;1.80;1.05;;;11.60;83.50;;;;;;5031301;28;20134;-73
2023/12/11 10:02:14;;;;;;;5.47;0.93;;;11.60;83.40;;;;;;5031252;28;20072;-73
2023/12/11 10:04:59;;;;;;;;;;;11.70;83.40;;;;;;5033303;28;20065;-73
2023/12/11 10:07:25;;;;;;;2.97;1.55;;;11.70;82.80;;;;;;5021605;28;20273;-73
2023/12/11 10:09:51;;;;;;;1.55;1.02;;;11.60;83.00;;;;;;5025900;28;20041;-73
2023/12/11 10:12:16;;;;;;;6.90;0.88;;;11.60;82.70;;;;;;5027208;28;20480;-65
2023/12/11 10:14:42;;;;;;;1.40;0.88;;;11.70;82.80;;;;;;5014023;28;20030;-65
2023/12/11 10:17:26;;;;;;;2.08;0.80;;;11.70;82.60;;;;;;5004947;28;20037;-64
2023/12/11 10:19:52;;;;;;;9.07;1.83;;;11.70;82.30;;;;;;5029921;28;20033;-73
2023/12/11 10:22:29;;;;;;;4.85;1.65;;;11.70;82.20;;;;;;5032495;28;20086;-73
2023/12/11 10:24:55;;;;;;;1.85;0.93;;;11.70;82.10;;;;;;5017840;28;20091;-73
2023/12/11 10:27:25;;;;;;;5.57;1.77;;;11.70;82.10;;;;;;4997310;28;20033;-73
2023/12/11 10:30:14;;;;;;;1.35;0.85;;;11.70;82.40;;;;;;5033117;28;20025;-73
2023/12/11 10:32:40;;;;;;;3.95;1.38;;;11.60;83.10;;;;;;5017593;28;20033;-73
2023/12/11 10:35:07;;;;;;;2.05;1.20;;;11.50;84.00;;;;;;5034275;28;20469;-73
2023/12/11 10:37:36;;;;;;;4.97;1.85;;;11.50;84.50;;;;;;5042508;28;20055;-73
2023/12/11 10:40:03;;;;;;;8.82;1.42;;;11.40;85.00;;;;;;5035634;28;20547;-74
2023/12/11 10:42:29;;;;;;;6.78;1.08;;;11.40;85.10;;;;;;5031087;28;20045;-64
2023/12/11 10:44:56;;;;;;;3.33;1.38;;;11.30;85.30;;;;;;5033194;28;20426;-65
2023/12/11 10:47:22;;;;;;;7.30;2.05;;;11.30;85.40;;;;;;5033506;28;20022;-65
2023/12/11 10:49:49;;;;;;;4.72;1.13;;;11.30;85.40;;;;;;5035627;28;20388;-65
2023/12/11 10:52:16;;;;;;;10.00;2.30;;;11.30;85.50;;;;;;5034458;28;20079;-64
2023/12/11 10:54:41;;;;;;;6.47;2.10;;;11.30;85.40;;;;;;5035725;28;20056;-64
2023/12/11 10:57:15;;;;;;;2.78;1.15;;;11.30;85.50;;;;;;5036441;28;20049;-62
2023/12/11 10:59:41;;;;;;;3.50;1.35;;;11.30;85.50;;;;;;5029769;28;20469;-72
2023/12/11 11:02:08;;;;;;;6.43;1.52;;;11.40;85.50;;;;;;5030430;28;20077;-72
2023/12/11 11:04:39;;;;;;;3.88;1.58;;;11.40;85.40;;;;;;5022318;28;20040;-62
2023/12/11 11:07:25;;;;;;;4.78;1.23;;;11.50;85.30;;;;;;5032061;28;20035;-62
2023/12/11 11:10:11;;;;;;;5.07;1.30;;;11.50;85.60;;;;;;5036458;28;20465;-62
2023/12/11 11:12:47;;;;;;;3.80;1.90;;;11.70;84.40;;;;;;5027758;28;20392;-62
2023/12/11 11:15:23;;;;;;;7.13;1.42;;;11.60;84.10;;;;;;5008309;28;20418;-62
2023/12/11 11:21:13;;;;;;;4.03;1.73;;;11.60;83.40;;;;;;5045495;22;20063;-71
2023/12/11 11:23:42;;;;;;;4.07;1.17;;;11.50;83.80;;;;;;5060008;22;20488;-72
2023/12/11 11:26:33;;;;;;;4.78;1.90;;;11.50;84.00;;;;;;5047464;28;20127;-72
2023/12/11 11:28:59;;;;;;;7.18;2.40;;;11.60;83.70;;;;;;5072025;28;20074;-62
2023/12/11 11:31:49;;;;;;;4.25;1.92;;;11.50;84.10;;;;;;5069451;28;20593;-62
2023/12/11 11:34:15;;;;;;;10.30;1.90;;;11.50;84.40;;;;;;5074152;28;20068;-61
2023/12/11 11:36:46;;;;;;;7.20;1.88;;;11.50;84.80;;;;;;5068192;28;20055;-62
2023/12/11 11:39:12;;;;;;;4.55;1.58;;;11.40;85.30;;;;;;5064756;28;20094;-62
2023/12/11 11:41:38;;;;;;;5.45;1.88;;;11.40;85.00;;;;;;5066804;28;20024;-62
2023/12/11 11:44:09;;;;;;;9.95;1.92;;;11.90;85.40;;;;;;5065357;28;20044;-62
2023/12/11 11:46:55;;;;;;;4.30;1.63;;;12.40;82.70;;;;;;5061191;28;20040;-71
2023/12/11 11:49:28;;;;;;;4.25;1.17;;;12.30;81.90;;;;;;5064552;28;20040;-71
2023/12/11 11:51:54;;;;;;;3.20;1.80;;;12.10;82.20;;;;;;5071510;28;20032;-62
2023/12/11 11:54:23;;;;;;;7.55;1.73;;;12.00;82.60;;;;;;5064462;28;20029;-62
2023/12/11 11:56:49;;;;;;;6.47;0.82;;;12.30;82.80;;;;;;5067766;28;20025;-62
2023/12/11 11:59:15;;;;;;;2.38;1.10;;;12.80;80.70;;;;;;5051095;28;20537;-71
2023/12/11 12:01:49;;;;;;;2.95;1.25;;;12.80;79.80;;;;;;5066878;28;20068;-62
2023/12/11 12:04:26;;;;;;;2.33;1.15;;;12.60;79.10;;;;;;5068388;28;20498;-62
2023/12/11 12:06:53;;;;;;;1.85;0.88;;;12.30;79.20;;;;;;5069554;28;20028;-71
2023/12/11 12:09:19;;;;;;;3.88;1.33;;;12.30;80.00;;;;;;5073986;28;20032;-71
2023/12/11 12:11:44;;;;;;;6.22;1.58;;;12.20;79.80;;;;;;5052499;28;20233;-71
2023/12/11 12:14:13;;;;;;;4.97;0.88;;;12.10;79.10;;;;;;5065385;28;20496;-71
2023/12/11 12:16:39;;;;;;;1.23;0.93;;;12.00;78.70;;;;;;5070655;28;20536;-71
2023/12/11 12:19:05;;;;;;;2.30;0.60;;;12.00;77.60;;;;;;5071604;28;20079;-71
2023/12/11 12:21:32;;;;;;;1.42;0.88;;;12.10;77.40;;;;;;5048638;28;20062;-71
2023/12/11 12:24:06;;;;;;;4.32;1.35;;;12.10;77.30;;;;;;5069378;28;20442;-71
2023/12/11 12:26:35;;;;;;;3.10;1.33;;;12.10;77.30;;;;;;5050682;28;20039;-62
2023/12/11 12:29:01;;;;;;;5.20;1.25;;;12.10;76.90;;;;;;5070451;28;20074;-62
2023/12/11 12:31:27;;;;;;;2.00;0.65;;;12.00;76.10;;;;;;5069485;28;20032;-70
2023/12/11 12:33:53;;;;;;;2.63;0.98;;;11.90;76.70;;;;;;5050072;28;20475;-62
2023/12/11 12:36:19;;;;;;;3.67;0.40;;;11.80;76.40;;;;;;5068559;28;20032;-62
2023/12/11 12:38:45;;;;;;;2.95;0.95;;;11.80;76.80;;;;;;5069554;28;20032;-63
2023/12/11 12:41:11;;;;;;;2.88;0.70;;;11.80;77.00;;;;;;5059482;28;20087;-62
2023/12/11 12:43:38;;;;;;;7.13;0.90;;;11.90;76.80;;;;;;5069123;28;20586;-62